Time;durP1;ratioP1;P1;durP2;ratioP2;P2;SDS_P1;SDS_P2;PMS_P1;PMS_P2;Temp;Humidity;BMP_temperature;BMP_pressure;BME280_temperature;BME280_humidity;BME280_pressure;Samples;Min_cycle;Max_cycle;Signal;HPM_P1;HPM_P2
2022/03/16 00:00:24;;;;;;;;;;;;;;;17.29;47.41;101306.06;4960431;28;117852;-64
2022/03/16 00:02:50;;;;;;;;;;;;;;;17.27;47.49;101300.94;4976595;27;128534;-68
2022/03/16 00:05:16;;;;;;;;;;;;;;;17.27;47.40;101300.94;4968970;28;129168;-68
2022/03/16 00:07:42;;;;;;;;;;;;;;;17.26;47.31;101302.03;4943288;28;127889;-64
2022/03/16 00:10:09;;;;;;;;;;;;;;;17.26;47.58;101304.75;4972506;28;97790;-67
2022/03/16 00:12:35;;;;;;;;;;;;;;;17.26;47.50;101310.22;4982977;28;99026;-68
2022/03/16 00:15:01;;;;;;;;;;;;;;;17.27;47.35;101302.84;4980790;28;98718;-64
2022/03/16 00:17:27;;;;;;;;;;;;;;;17.27;47.37;101305.56;4981781;28;127435;-64
2022/03/16 00:19:53;;;;;;;;;;;;;;;17.27;47.58;101303.66;4961773;28;116479;-68
2022/03/16 00:22:19;;;;;;;;;;;;;;;17.27;47.59;101308.28;4962249;28;127627;-68
2022/03/16 00:24:45;;;;;;;;;;;;;;;17.28;47.58;101304.47;4959981;28;130446;-64
2022/03/16 00:27:11;;;;;;;;;;;;;;;17.27;47.49;101306.38;4946152;28;125509;-68
2022/03/16 00:29:37;;;;;;;;;;;;;;;17.28;47.51;101316.16;4962822;28;108999;-68
2022/03/16 00:32:03;;;;;;;;;;;;;;;17.28;47.58;101313.44;4961739;28;128275;-67
2022/03/16 00:34:31;;;;;;;;;;;;;;;17.29;47.59;101314.25;4977118;28;123818;-64
2022/03/16 00:36:57;;;;;;;;;;;;;;;17.29;47.53;101315.09;4981019;28;98089;-68
2022/03/16 00:39:23;;;;;;;;;;;;;;;17.28;47.59;101309.91;4981771;28;117322;-67
2022/03/16 00:41:49;;;;;;;;;;;;;;;17.28;47.56;101310.72;4981382;28;126901;-64
2022/03/16 00:44:15;;;;;;;;;;;;;;;17.28;47.71;101320.81;4981326;28;128252;-68
2022/03/16 00:46:41;;;;;;;;;;;;;;;17.28;47.54;101312.63;4980395;28;127596;-64
2022/03/16 00:49:07;;;;;;;;;;;;;;;17.26;47.54;101312.94;4981060;28;98031;-64
2022/03/16 00:51:33;;;;;;;;;;;;;;;17.27;47.46;101322.72;4980842;28;127300;-67
2022/03/16 00:53:59;;;;;;;;;;;;;;;17.27;47.56;101317.28;4979048;28;126644;-64
2022/03/16 00:56:25;;;;;;;;;;;;;;;17.28;47.55;101321.63;4981075;28;127386;-64
2022/03/16 00:58:51;;;;;;;;;;;;;;;17.29;47.51;101319.69;4983048;28;97952;-67
2022/03/16 01:01:17;;;;;;;;;;;;;;;17.27;47.59;101325.44;4981265;28;128285;-67
2022/03/16 01:03:43;;;;;;;;;;;;;;;17.28;47.52;101324.34;4962489;28;128358;-64
2022/03/16 01:06:15;;;;;;;;;;;;;;;17.27;47.72;101328.19;4980292;28;128080;-67
2022/03/16 01:08:42;;;;;;;;;;;;;;;17.27;47.60;101320.00;4974150;28;98276;-64
2022/03/16 01:11:08;;;;;;;;;;;;;;;17.26;47.73;101323.84;4960873;28;98733;-64
2022/03/16 01:13:34;;;;;;;;;;;;;;;17.26;47.66;101320.31;4974919;28;98362;-64
2022/03/16 01:16:00;;;;;;;;;;;;;;;17.25;47.54;101326.84;4963408;28;97989;-64
2022/03/16 01:18:26;;;;;;;;;;;;;;;17.23;47.49;101329.84;4946734;28;108569;-64
2022/03/16 01:20:52;;;;;;;;;;;;;;;17.23;47.57;101326.31;4981508;28;128317;-67
2022/03/16 01:23:18;;;;;;;;;;;;;;;17.22;47.54;101332.88;4980092;28;128767;-64
2022/03/16 01:25:44;;;;;;;;;;;;;;;17.22;47.72;101344.59;4979591;28;126846;-67
2022/03/16 01:28:10;;;;;;;;;;;;;;;17.21;47.67;101351.13;4979678;28;118631;-64
2022/03/16 01:30:36;;;;;;;;;;;;;;;17.22;47.53;101354.69;4981359;28;126210;-64
2022/03/16 01:33:01;;;;;;;;;;;;;;;17.20;47.63;101345.97;4973039;28;127944;-67
2022/03/16 01:35:27;;;;;;;;;;;;;;;17.20;47.79;101346.78;4961157;28;103668;-64
2022/03/16 01:37:53;;;;;;;;;;;;;;;17.20;47.71;101360.41;4943797;28;103905;-64
2022/03/16 01:40:19;;;;;;;;;;;;;;;17.20;47.56;101352.22;4960472;28;125708;-67
2022/03/16 01:42:45;;;;;;;;;;;;;;;17.18;47.60;101355.25;4941968;28;129404;-64
2022/03/16 01:45:11;;;;;;;;;;;;;;;17.19;47.70;101361.50;4960713;28;126779;-67
2022/03/16 01:47:37;;;;;;;;;;;;;;;17.18;47.69;101359.91;4961339;28;100873;-64
2022/03/16 01:50:03;;;;;;;;;;;;;;;17.16;47.75;101368.34;4982195;28;98219;-67
2022/03/16 01:52:29;;;;;;;;;;;;;;;17.17;47.60;101378.16;4980578;28;126967;-64
2022/03/16 01:54:56;;;;;;;;;;;;;;;17.17;47.78;101374.59;4979435;28;98248;-64
2022/03/16 01:57:21;;;;;;;;;;;;;;;17.16;47.79;101376.50;4982727;28;97744;-64
2022/03/16 01:59:47;;;;;;;;;;;;;;;17.16;47.76;101370.25;4981257;28;98915;-64
2022/03/16 02:02:13;;;;;;;;;;;;;;;17.15;47.87;101379.53;4980352;28;126825;-67
2022/03/16 02:04:40;;;;;;;;;;;;;;;17.15;47.68;101384.97;4970188;28;125497;-64
2022/03/16 02:07:06;;;;;;;;;;;;;;;17.14;47.79;101377.91;4962804;28;97758;-64
2022/03/16 02:09:32;;;;;;;;;;;;;;;17.13;47.71;101381.72;4976052;28;104356;-64
2022/03/16 02:11:58;;;;;;;;;;;;;;;17.12;47.87;101386.38;4980629;28;114386;-64
2022/03/16 02:14:24;;;;;;;;;;;;;;;17.11;47.75;101395.66;4964536;28;129089;-64
2022/03/16 02:16:50;;;;;;;;;;;;;;;17.12;47.69;101396.44;4963521;28;98863;-67
2022/03/16 02:19:16;;;;;;;;;;;;;;;17.12;47.62;101399.19;4972319;28;98434;-67
2022/03/16 02:21:44;;;;;;;;;;;;;;;17.11;47.74;101403.00;4978322;28;126261;-64
2022/03/16 02:24:10;;;;;;;;;;;;;;;17.11;47.83;101403.00;4962385;28;98758;-64
2022/03/16 02:26:36;;;;;;;;;;;;;;;17.09;47.80;101411.44;4980223;27;117332;-67
2022/03/16 02:29:02;;;;;;;;;;;;;;;17.10;47.71;101421.25;4968785;28;125889;-67
2022/03/16 02:31:28;;;;;;;;;;;;;;;17.09;47.77;101430.50;4959739;28;126231;-64
2022/03/16 02:33:54;;;;;;;;;;;;;;;17.08;47.63;101428.09;4961049;28;127617;-64
2022/03/16 02:36:20;;;;;;;;;;;;;;;17.09;47.71;101438.69;4978991;28;97800;-64
2022/03/16 02:38:46;;;;;;;;;;;;;;;17.08;47.61;101437.06;4976620;28;128115;-64
2022/03/16 02:41:12;;;;;;;;;;;;;;;17.08;47.72;101437.06;4980412;28;111906;-64
2022/03/16 02:43:38;;;;;;;;;;;;;;;17.09;47.70;101441.41;4979275;28;126435;-67
2022/03/16 02:46:04;;;;;;;;;;;;;;;17.08;47.81;101450.69;4979650;28;98161;-67
2022/03/16 02:48:30;;;;;;;;;;;;;;;17.09;47.86;101443.31;4978211;28;127601;-67
2022/03/16 02:50:56;;;;;;;;;;;;;;;17.09;47.77;101451.50;4981039;28;110767;-67
2022/03/16 02:53:21;;;;;;;;;;;;;;;17.08;47.78;101453.41;4979351;28;127720;-67
2022/03/16 02:55:47;;;;;;;;;;;;;;;17.08;47.60;101463.50;4980042;28;117555;-67
2022/03/16 02:58:14;;;;;;;;;;;;;;;17.07;47.69;101465.41;4978170;28;98365;-64
2022/03/16 03:00:40;;;;;;;;;;;;;;;17.07;47.50;101472.78;4962856;28;107779;-66
2022/03/16 03:03:06;;;;;;;;;;;;;;;17.07;47.69;101476.31;4977772;28;98064;-64
2022/03/16 03:05:32;;;;;;;;;;;;;;;17.07;47.53;101481.75;4974397;28;116756;-67
2022/03/16 03:07:59;;;;;;;;;;;;;;;17.06;47.64;101479.31;4975521;28;128009;-64
2022/03/16 03:10:25;;;;;;;;;;;;;;;17.06;47.66;101492.94;4960055;28;97707;-67
2022/03/16 03:12:51;;;;;;;;;;;;;;;17.06;47.66;101492.94;4969340;28;97902;-68
2022/03/16 03:15:18;;;;;;;;;;;;;;;17.05;47.69;101500.28;4959198;28;117520;-64
2022/03/16 03:17:44;;;;;;;;;;;;;;;17.05;47.60;101500.28;4942642;28;98162;-67
2022/03/16 03:20:10;;;;;;;;;;;;;;;17.06;47.71;101503.84;4943047;28;99410;-67
2022/03/16 03:22:36;;;;;;;;;;;;;;;17.06;47.28;101498.41;4957978;28;105346;-67
2022/03/16 03:25:03;;;;;;;;;;;;;;;17.05;47.71;101507.63;4961880;28;98005;-64
2022/03/16 03:27:30;;;;;;;;;;;;;;;17.05;47.64;101510.38;4980224;28;98481;-67
2022/03/16 03:29:56;;;;;;;;;;;;;;;17.04;47.50;101514.19;4973380;28;99245;-67
2022/03/16 03:32:22;;;;;;;;;;;;;;;17.05;47.66;101519.34;4959760;28;127971;-64
2022/03/16 03:34:51;;;;;;;;;;;;;;;17.03;47.55;101521.56;4958965;28;117563;-64
2022/03/16 03:37:18;;;;;;;;;;;;;;;17.04;47.46;101528.63;4961537;28;99324;-68
2022/03/16 03:39:44;;;;;;;;;;;;;;;17.03;47.54;101523.47;4963006;28;128936;-64
2022/03/16 03:42:10;;;;;;;;;;;;;;;17.03;47.69;101528.91;4962383;28;126466;-64
2022/03/16 03:44:37;;;;;;;;;;;;;;;17.03;47.50;101527.00;4964071;28;98221;-64
2022/03/16 03:47:05;;;;;;;;;;;;;;;17.04;47.57;101530.53;4965133;28;98019;-64
2022/03/16 03:49:35;;;;;;;;;;;;;;;17.03;47.48;101529.72;4974253;28;98581;-64
2022/03/16 03:52:01;;;;;;;;;;;;;;;17.02;47.45;101530.03;4963837;28;127877;-65
2022/03/16 03:54:26;;;;;;;;;;;;;;;17.01;47.54;101529.19;4978465;28;98083;-64
2022/03/16 03:56:53;;;;;;;;;;;;;;;17.01;47.63;101542.00;4963517;28;128951;-64
2022/03/16 03:59:19;;;;;;;;;;;;;;;17.00;47.48;101540.38;4980532;28;128050;-67
2022/03/16 04:01:46;;;;;;;;;;;;;;;17.00;47.73;101545.81;4983619;28;98240;-68
2022/03/16 04:04:12;;;;;;;;;;;;;;;16.99;47.51;101549.66;4966387;28;110702;-64
2022/03/16 04:06:38;;;;;;;;;;;;;;;16.98;47.48;101551.56;4982812;28;98344;-64
2022/03/16 04:09:04;;;;;;;;;;;;;;;16.97;47.43;101560.00;4962718;28;98346;-64
2022/03/16 04:11:30;;;;;;;;;;;;;;;16.97;47.44;101560.00;4962768;28;98878;-67
2022/03/16 04:13:56;;;;;;;;;;;;;;;16.97;47.50;101554.56;4971398;28;114895;-67
2022/03/16 04:16:22;;;;;;;;;;;;;;;16.96;47.70;101558.38;4961577;28;112880;-67
2022/03/16 04:18:48;;;;;;;;;;;;;;;16.95;47.59;101570.38;4971642;28;125619;-67
2022/03/16 04:21:14;;;;;;;;;;;;;;;16.94;47.59;101575.00;4982428;28;127870;-64
2022/03/16 04:23:40;;;;;;;;;;;;;;;16.93;47.60;101573.38;4973852;28;118826;-67
2022/03/16 04:26:06;;;;;;;;;;;;;;;16.91;47.54;101573.66;4974749;28;126737;-64
2022/03/16 04:28:32;;;;;;;;;;;;;;;16.90;47.56;101569.31;4962745;28;125031;-67
2022/03/16 04:30:59;;;;;;;;;;;;;;;16.89;47.63;101569.59;4962785;28;108039;-67
2022/03/16 04:33:26;;;;;;;;;;;;;;;16.89;47.36;101577.75;4972060;28;99485;-68
2022/03/16 04:35:52;;;;;;;;;;;;;;;16.89;47.56;101580.47;4980181;28;100987;-67
2022/03/16 04:38:18;;;;;;;;;;;;;;;16.87;47.34;101578.03;4981380;28;128016;-64
2022/03/16 04:40:44;;;;;;;;;;;;;;;16.86;47.64;101587.31;4982216;28;98544;-67
2022/03/16 04:43:10;;;;;;;;;;;;;;;16.85;47.45;101587.59;4982025;28;117542;-69
2022/03/16 04:45:38;;;;;;;;;;;;;;;16.84;47.33;101594.13;4979441;28;127466;-68
2022/03/16 04:48:08;;;;;;;;;;;;;;;16.82;47.60;101597.16;4978957;28;98556;-64
2022/03/16 04:50:40;;;;;;;;;;;;;;;16.81;47.54;101614.56;4961783;28;97929;-64
2022/03/16 04:53:06;;;;;;;;;;;;;;;16.80;47.38;101614.84;4963120;28;113126;-64
2022/03/16 04:55:35;;;;;;;;;;;;;;;16.76;47.50;101625.50;4962343;28;98328;-67
2022/03/16 04:58:02;;;;;;;;;;;;;;;16.76;47.52;101632.84;4962662;28;98246;-64
2022/03/16 05:00:28;;;;;;;;;;;;;;;16.74;47.50;101635.00;4961574;28;127060;-68
2022/03/16 05:02:53;;;;;;;;;;;;;;;16.72;47.51;101637.19;4977954;28;117675;-67
2022/03/16 05:05:19;;;;;;;;;;;;;;;16.71;47.60;101641.00;4968278;28;128201;-67
2022/03/16 05:07:45;;;;;;;;;;;;;;;16.71;47.60;101651.91;4962225;28;125612;-64
2022/03/16 05:10:11;;;;;;;;;;;;;;;16.68;47.34;101642.38;4964408;28;98182;-64
2022/03/16 05:12:42;;;;;;;;;;;;;;;16.67;47.18;101654.38;4946670;28;118481;-64
2022/03/16 05:15:10;;;;;;;;;;;;;;;16.67;47.40;101657.09;4963523;28;98114;-67
2022/03/16 05:17:36;;;;;;;;;;;;;;;16.67;47.60;101660.63;4964210;28;97987;-68
2022/03/16 05:20:02;;;;;;;;;;;;;;;16.67;47.69;101662.53;4943248;28;128739;-67
2022/03/16 05:22:28;;;;;;;;;;;;;;;16.65;47.41;101662.78;4962073;28;97910;-64
2022/03/16 05:24:54;;;;;;;;;;;;;;;16.67;47.27;101662.53;4979248;28;128784;-67
2022/03/16 05:27:20;;;;;;;;;;;;;;;16.67;47.46;101663.34;4982195;28;98691;-64
2022/03/16 05:29:47;;;;;;;;;;;;;;;16.68;47.61;101664.16;4981731;28;97871;-64
2022/03/16 05:32:13;;;;;;;;;;;;;;;16.68;47.25;101664.16;4982203;28;98108;-64
2022/03/16 05:34:39;;;;;;;;;;;;;;;16.67;47.46;101674.22;4968765;28;108133;-64
2022/03/16 05:37:06;;;;;;;;;;;;;;;16.69;47.20;101666.59;4944919;28;129214;-64
2022/03/16 05:39:32;;;;;;;;;;;;;;;16.71;47.17;101670.97;4962244;28;98059;-67
2022/03/16 05:42:00;;;;;;;;;;;;;;;16.72;47.09;101684.28;4942410;28;114519;-64
2022/03/16 05:44:26;;;;;;;;;;;;;;;16.74;47.46;101679.41;4962412;28;98264;-64
2022/03/16 05:46:54;;;;;;;;;;;;;;;16.76;47.09;101682.66;4926926;28;98554;-64
2022/03/16 05:49:20;;;;;;;;;;;;;;;16.78;46.99;101685.94;4937852;28;98282;-67
2022/03/16 05:51:46;;;;;;;;;;;;;;;16.81;46.98;101690.78;4961639;28;98085;-68
2022/03/16 05:54:12;;;;;;;;;;;;;;;16.84;47.07;101695.69;4962729;28;98060;-64
2022/03/16 05:56:38;;;;;;;;;;;;;;;16.86;47.05;101698.16;4941482;28;128202;-64
2022/03/16 05:59:03;;;;;;;;;;;;;;;16.89;46.96;101700.28;4962212;28;98545;-64
2022/03/16 06:01:30;;;;;;;;;;;;;;;16.91;46.98;101707.09;4958776;28;116929;-64
2022/03/16 06:03:56;;;;;;;;;;;;;;;16.93;46.86;101707.63;4961911;28;98435;-64
2022/03/16 06:06:22;;;;;;;;;;;;;;;16.97;46.94;101712.50;4960670;28;98518;-67
2022/03/16 06:08:48;;;;;;;;;;;;;;;16.99;46.92;101713.88;4952635;28;98017;-68
2022/03/16 06:11:14;;;;;;;;;;;;;;;17.02;46.97;101716.03;4980909;28;97816;-67
2022/03/16 06:13:40;;;;;;;;;;;;;;;17.06;46.75;101716.28;4971755;28;99575;-66
2022/03/16 06:16:06;;;;;;;;;;;;;;;17.08;46.91;101717.63;4977233;28;98115;-64
2022/03/16 06:18:32;;;;;;;;;;;;;;;17.12;46.90;101726.03;4980899;28;98023;-65
2022/03/16 06:20:58;;;;;;;;;;;;;;;17.17;46.78;101737.75;4969877;28;98114;-64
2022/03/16 06:23:24;;;;;;;;;;;;;;;17.23;46.61;101729.53;4960432;27;128589;-64
2022/03/16 06:25:50;;;;;;;;;;;;;;;17.28;46.74;101735.75;4980736;28;119674;-67
2022/03/16 06:28:16;;;;;;;;;;;;;;;17.33;46.71;101734.91;4981086;28;99478;-67
2022/03/16 06:30:42;;;;;;;;;;;;;;;17.40;46.80;101740.88;4981849;28;97903;-64
2022/03/16 06:33:08;;;;;;;;;;;;;;;17.45;46.61;101740.00;4980193;28;126855;-67
2022/03/16 06:35:34;;;;;;;;;;;;;;;17.51;46.66;101742.44;4969441;28;98405;-64
2022/03/16 06:38:00;;;;;;;;;;;;;;;17.57;46.53;101737.78;4942990;28;98037;-67
2022/03/16 06:40:26;;;;;;;;;;;;;;;17.63;46.49;101734.72;4961700;28;97808;-64
2022/03/16 06:42:56;;;;;;;;;;;;;;;17.71;46.50;101735.19;4926235;28;99041;-66
2022/03/16 06:45:23;;;;;;;;;;;;;;;17.76;46.43;101736.00;4960506;28;101778;-67
2022/03/16 06:47:48;;;;;;;;;;;;;;;17.82;46.53;101747.69;4960880;28;98975;-64
2022/03/16 06:50:14;;;;;;;;;;;;;;;17.87;46.47;101740.28;4968189;28;97846;-64
2022/03/16 06:52:41;;;;;;;;;;;;;;;17.95;46.45;101741.56;4979304;28;98681;-64
2022/03/16 06:55:09;;;;;;;;;;;;;;;18.01;46.56;101743.16;4980288;28;98975;-64
2022/03/16 06:57:35;;;;;;;;;;;;;;;18.09;46.29;101748.00;4979420;28;124070;-67
2022/03/16 07:00:02;;;;;;;;;;;;;;;18.16;46.36;101744.94;4980733;28;98078;-67
2022/03/16 07:02:28;;;;;;;;;;;;;;;18.24;46.31;101740.78;4980613;28;97955;-67
2022/03/16 07:04:54;;;;;;;;;;;;;;;18.30;46.19;101743.16;4968150;28;98217;-64
2022/03/16 07:07:20;;;;;;;;;;;;;;;18.40;46.13;101751.25;4933240;28;97986;-67
2022/03/16 07:09:46;;;;;;;;;;;;;;;18.50;46.23;101754.97;4945604;28;98039;-67
2022/03/16 07:12:12;;;;;;;;;;;;;;;18.59;46.17;101764.16;4979217;27;127858;-64
2022/03/16 07:14:38;;;;;;;;;;;;;;;18.71;45.94;101759.13;4979180;28;127533;-68
2022/03/16 07:17:04;;;;;;;;;;;;;;;18.84;45.92;101763.06;4944859;28;125876;-65
2022/03/16 07:19:30;;;;;;;;;;;;;;;18.99;45.68;101760.16;4978405;28;117079;-67
2022/03/16 07:21:58;;;;;;;;;;;;;;;19.15;45.54;101770.88;4980921;28;98315;-64
2022/03/16 07:24:25;;;;;;;;;;;;;;;19.23;45.63;101781.97;4979734;28;99495;-64
2022/03/16 07:26:52;;;;;;;;;;;;;;;19.27;45.60;101777.53;4979786;28;98589;-64
2022/03/16 07:29:18;;;;;;;;;;;;;;;19.34;45.52;101780.72;4980408;28;97808;-67
2022/03/16 07:31:44;;;;;;;;;;;;;;;19.43;45.63;101780.88;4979756;28;98064;-67
2022/03/16 07:34:10;;;;;;;;;;;;;;;19.52;45.53;101775.53;4968890;28;128669;-67
2022/03/16 07:36:36;;;;;;;;;;;;;;;19.66;45.32;101781.94;4958924;28;126731;-66
2022/03/16 07:39:02;;;;;;;;;;;;;;;19.79;45.19;101780.38;4942661;28;97738;-64
2022/03/16 07:41:28;;;;;;;;;;;;;;;19.94;45.23;101793.00;4959278;28;127135;-64
2022/03/16 07:43:54;;;;;;;;;;;;;;;20.10;44.69;101792.44;4924252;28;126544;-64
2022/03/16 07:46:20;;;;;;;;;;;;;;;20.31;44.79;101800.28;4941831;28;99702;-64
2022/03/16 07:48:46;;;;;;;;;;;;;;;20.50;44.58;101801.06;4925277;28;115019;-67
2022/03/16 07:51:12;;;;;;;;;;;;;;;20.73;44.62;101798.47;4941318;28;127541;-67
2022/03/16 07:53:38;;;;;;;;;;;;;;;20.98;44.24;101795.19;4941598;28;100999;-66
2022/03/16 07:56:04;;;;;;;;;;;;;;;21.24;44.04;101795.47;4959320;28;98138;-67
2022/03/16 07:58:30;;;;;;;;;;;;;;;21.52;43.83;101793.50;4959476;28;116430;-67
2022/03/16 08:00:56;;;;;;;;;;;;;;;21.86;43.64;101802.34;4959292;28;126654;-67
2022/03/16 08:03:22;;;;;;;;;;;;;;;22.17;43.42;101797.75;4958622;28;128097;-67
2022/03/16 08:05:48;;;;;;;;;;;;;;;22.58;42.90;101812.34;4961598;28;127222;-67
2022/03/16 08:08:14;;;;;;;;;;;;;;;23.09;42.47;101811.72;4961078;28;97905;-64
2022/03/16 08:10:40;;;;;;;;;;;;;;;23.62;41.91;101810.69;4941028;28;98436;-69
2022/03/16 08:13:06;;;;;;;;;;;;;;;24.29;41.14;101811.25;4972151;28;128411;-64
2022/03/16 08:15:32;;;;;;;;;;;;;;;24.89;40.55;101815.78;4979328;28;108870;-64
2022/03/16 08:17:58;;;;;;;;;;;;;;;25.65;40.04;101814.81;4979390;28;119435;-68
2022/03/16 08:20:24;;;;;;;;;;;;;;;26.11;39.58;101824.00;4959988;28;125923;-64
2022/03/16 08:22:54;;;;;;;;;;;;;;;27.12;38.40;101823.47;4960088;28;127178;-68
2022/03/16 08:25:20;;;;;;;;;;;;;;;27.78;38.00;101828.63;4960493;28;97906;-70
2022/03/16 08:27:45;;;;;;;;;;;;;;;28.86;36.80;101835.06;4968489;28;112938;-64
2022/03/16 08:30:12;;;;;;;;;;;;;;;29.81;35.97;101838.41;4946358;28;101724;-64
2022/03/16 08:32:38;;;;;;;;;;;;;;;29.89;36.64;101842.16;4955489;28;98724;-69
2022/03/16 08:35:06;;;;;;;;;;;;;;;29.52;37.35;101839.78;4975412;27;98495;-64
2022/03/16 08:37:32;;;;;;;;;;;;;;;30.17;36.47;101839.13;4980072;28;98242;-64
2022/03/16 08:39:58;;;;;;;;;;;;;;;31.38;34.94;101840.34;4980146;28;126490;-69
2022/03/16 08:42:24;;;;;;;;;;;;;;;31.87;34.52;101842.16;4981638;28;127422;-64
2022/03/16 08:44:50;;;;;;;;;;;;;;;33.01;33.55;101844.44;4981787;28;127129;-69
2022/03/16 08:47:16;;;;;;;;;;;;;;;33.75;33.04;101846.84;4953390;28;98018;-68
2022/03/16 08:49:44;;;;;;;;;;;;;;;33.44;33.51;101839.91;4962567;28;98699;-68
2022/03/16 08:52:10;;;;;;;;;;;;;;;31.80;35.51;101844.06;4956172;28;98454;-69
2022/03/16 08:54:36;;;;;;;;;;;;;;;31.61;35.53;101833.88;4942885;28;97967;-64
2022/03/16 08:57:02;;;;;;;;;;;;;;;33.46;33.29;101829.19;4963728;28;97844;-64
2022/03/16 08:59:28;;;;;;;;;;;;;;;32.21;34.78;101826.22;4961586;28;125662;-64
2022/03/16 09:01:54;;;;;;;;;;;;;;;32.10;34.70;101824.50;4962077;28;104624;-69
2022/03/16 09:04:21;;;;;;;;;;;;;;;33.95;32.23;101831.34;4966367;28;125634;-64
2022/03/16 09:06:48;;;;;;;;;;;;;;;35.45;31.29;101827.72;4978616;28;97880;-65
2022/03/16 09:09:14;;;;;;;;;;;;;;;36.40;30.12;101830.41;4980533;28;97954;-64
2022/03/16 09:11:40;;;;;;;;;;;;;;;37.41;29.27;101830.25;4981107;28;125613;-64
2022/03/16 09:14:06;;;;;;;;;;;;;;;37.82;29.52;101819.66;4974587;28;127701;-67
2022/03/16 09:16:32;;;;;;;;;;;;;;;38.16;29.42;101820.78;4962423;28;98185;-64
2022/03/16 09:18:58;;;;;;;;;;;;;;;38.27;29.36;101827.84;4962001;28;127815;-68
2022/03/16 09:21:25;;;;;;;;;;;;;;;38.23;29.70;101823.50;4963046;28;98459;-67
2022/03/16 09:23:53;;;;;;;;;;;;;;;37.95;30.17;101813.50;4962394;28;98550;-64
2022/03/16 09:26:21;;;;;;;;;;;;;;;37.53;30.28;101822.09;4961086;28;97689;-68
2022/03/16 09:28:47;;;;;;;;;;;;;;;37.20;30.77;101820.06;4980980;28;98465;-64
2022/03/16 09:31:13;;;;;;;;;;;;;;;36.99;31.28;101823.91;4981385;28;98856;-64
2022/03/16 09:33:40;;;;;;;;;;;;;;;36.79;31.30;101818.06;4979767;28;97968;-68
2022/03/16 09:36:08;;;;;;;;;;;;;;;36.68;31.44;101823.78;4963042;28;98183;-67
2022/03/16 09:38:37;;;;;;;;;;;;;;;36.57;31.49;101812.63;4963724;28;98956;-65
2022/03/16 09:41:03;;;;;;;;;;;;;;;36.55;31.48;101817.06;4982365;28;98500;-67
2022/03/16 09:43:33;;;;;;;;;;;;;;;36.55;31.43;101817.06;4968565;28;97905;-64
2022/03/16 09:46:12;;;;;;;;;;;;;;;36.59;31.69;101824.28;4961723;28;97896;-64
2022/03/16 09:48:41;;;;;;;;;;;;;;;36.67;31.29;101816.56;4962601;28;98409;-67
2022/03/16 09:51:07;;;;;;;;;;;;;;;36.79;31.37;101821.66;4962175;28;99017;-68
2022/03/16 09:53:33;;;;;;;;;;;;;;;36.87;31.05;101833.63;4961013;28;98641;-67
2022/03/16 09:56:00;;;;;;;;;;;;;;;36.76;30.60;101827.31;4963971;28;99196;-64
2022/03/16 09:58:26;;;;;;;;;;;;;;;36.54;30.18;101823.91;4981141;28;98875;-65
2022/03/16 10:00:56;;;;;;;;;;;;;;;36.32;29.93;101821.25;4961857;28;98194;-64
2022/03/16 10:03:23;;;;;;;;;;;;;;;36.12;29.71;101820.22;4981820;28;98318;-69
2022/03/16 10:05:50;;;;;;;;;;;;;;;35.79;29.55;101816.75;4964347;28;97905;-64
2022/03/16 10:08:31;;;;;;;;;;;;;;;35.37;29.32;101820.53;4979895;28;98258;-64
2022/03/16 10:13:54;;;;;;;;;;;;;;;34.06;29.68;101811.81;4966915;28;97858;-64
2022/03/16 10:16:20;;;;;;;;;;;;;;;34.29;28.99;101816.25;4953978;28;98030;-64
2022/03/16 10:18:55;;;;;;;;;;;;;;;34.20;28.66;101814.66;4974721;28;98157;-64
2022/03/16 10:21:22;;;;;;;;;;;;;;;34.16;28.94;101807.47;4960738;28;97991;-68
2022/03/16 10:23:48;;;;;;;;;;;;;;;33.81;29.01;101817.34;4943188;28;98123;-64
2022/03/16 10:26:18;;;;;;;;;;;;;;;33.85;28.21;101823.75;4961432;28;117749;-64
2022/03/16 10:28:46;;;;;;;;;;;;;;;33.77;28.82;101824.13;4978699;28;98117;-69
2022/03/16 10:31:12;;;;;;;;;;;;;;;33.85;28.62;101831.34;4981775;28;98683;-68
2022/03/16 10:33:50;;;;;;;;;;;;;;;33.94;28.48;101831.75;4980679;28;98119;-68
2022/03/16 10:36:22;;;;;;;;;;;;;;;34.12;28.50;101824.22;4970334;28;97894;-64
2022/03/16 10:38:55;;;;;;;;;;;;;;;34.38;27.80;101825.03;4962021;28;98376;-68
2022/03/16 10:46:58;;;;;;;;;;;;;;;35.38;27.18;101825.75;4967043;27;98073;-64
2022/03/16 10:49:26;;;;;;;;;;;;;;;35.73;26.97;101821.22;4980091;28;98193;-64
2022/03/16 10:52:05;;;;;;;;;;;;;;;34.97;27.79;101828.22;4961868;28;99092;-68
2022/03/16 10:54:31;;;;;;;;;;;;;;;34.93;27.83;101828.22;4960659;28;98642;-69
2022/03/16 10:56:58;;;;;;;;;;;;;;;34.54;27.68;101821.88;4962207;28;98024;-64
2022/03/16 10:59:31;;;;;;;;;;;;;;;34.27;28.04;101819.47;4980540;28;99120;-64
2022/03/16 11:02:04;;;;;;;;;;;;;;;34.77;27.20;101816.66;4980934;28;98762;-68
2022/03/16 11:04:34;;;;;;;;;;;;;;;35.32;27.00;101810.56;4974321;28;97773;-64
2022/03/16 11:07:00;;;;;;;;;;;;;;;35.75;26.36;101818.78;4961786;28;98036;-63
2022/03/16 11:09:27;;;;;;;;;;;;;;;35.98;25.95;101825.91;4960081;28;98701;-64
2022/03/16 11:14:40;;;;;;;;;;;;;;;36.38;25.94;101819.59;4975895;28;97824;-66
2022/03/16 11:17:06;;;;;;;;;;;;;;;35.60;26.59;101814.47;4969761;28;98127;-70
2022/03/16 11:19:32;;;;;;;;;;;;;;;34.98;26.54;101821.44;4959017;28;98027;-66
2022/03/16 11:22:08;;;;;;;;;;;;;;;33.94;27.13;101809.38;4950918;28;121131;-68
2022/03/16 11:24:36;;;;;;;;;;;;;;;34.55;26.34;101809.50;4963162;28;98076;-69
2022/03/16 11:27:25;;;;;;;;;;;;;;;33.11;27.41;101811.03;4948535;28;98004;-65
2022/03/16 11:30:12;;;;;;;;;;;;;;;32.85;27.58;101814.00;4960097;28;98433;-65
2022/03/16 11:32:39;;;;;;;;;;;;;;;32.38;27.77;101807.22;4958642;28;98606;-65
2022/03/16 11:35:17;;;;;;;;;;;;;;;31.66;28.23;101805.69;4960501;28;97784;-68
2022/03/16 11:37:48;;;;;;;;;;;;;;;32.20;27.59;101813.47;4975872;28;118190;-65
2022/03/16 11:40:17;;;;;;;;;;;;;;;32.63;27.20;101811.06;4960400;28;98513;-65
2022/03/16 11:43:04;;;;;;;;;;;;;;;32.92;26.81;101809.28;4976082;28;98197;-68
2022/03/16 11:45:54;;;;;;;;;;;;;;;31.60;27.90;101808.00;4979833;28;98526;-68
2022/03/16 11:48:33;;;;;;;;;;;;;;;30.88;28.40;101806.19;4942697;28;97797;-69
2022/03/16 11:51:13;;;;;;;;;;;;;;;30.02;28.63;101796.34;4960518;28;98525;-67
2022/03/16 11:53:57;;;;;;;;;;;;;;;29.29;29.38;101802.78;4969013;28;99074;-68
2022/03/16 11:56:35;;;;;;;;;;;;;;;28.54;29.51;101801.81;4979522;28;98473;-65
2022/03/16 11:59:05;;;;;;;;;;;;;;;27.83;29.68;101797.13;4980792;28;97984;-68
2022/03/16 12:01:38;;;;;;;;;;;;;;;27.87;29.10;101786.97;4981073;28;98327;-67
2022/03/16 12:04:15;;;;;;;;;;;;;;;28.55;28.74;101791.53;4981394;28;98417;-65
2022/03/16 12:07:14;;;;;;;;;;;;;;;28.93;28.59;101788.09;4963951;28;98604;-65
2022/03/16 12:09:46;;;;;;;;;;;;;;;29.18;28.67;101785.09;4960674;28;118264;-68
2022/03/16 12:15:17;;;;;;;;;;;;;;;29.50;28.23;101788.53;4960780;28;98042;-65
2022/03/16 12:17:53;;;;;;;;;;;;;;;29.68;28.29;101791.72;4962738;28;98239;-65
2022/03/16 12:20:30;;;;;;;;;;;;;;;29.87;27.58;101788.09;4977233;28;97849;-64
2022/03/16 12:23:00;;;;;;;;;;;;;;;29.99;27.53;101799.88;4983205;28;99448;-65
2022/03/16 12:25:26;;;;;;;;;;;;;;;29.94;27.62;101791.03;4964204;28;98471;-67
2022/03/16 12:31:00;;;;;;;;;;;;;;;28.73;28.98;101787.22;4981339;28;97997;-64
2022/03/16 12:33:28;;;;;;;;;;;;;;;28.14;29.02;101783.34;4970104;28;98585;-64
2022/03/16 12:36:02;;;;;;;;;;;;;;;28.06;28.81;101784.31;4980502;28;98563;-65
2022/03/16 12:38:32;;;;;;;;;;;;;;;27.96;28.95;101778.47;4981118;28;124284;-69
2022/03/16 12:43:47;;;;;;;;;;;;;;;28.05;28.62;101773.56;4959779;28;98401;-67
2022/03/16 12:46:25;;;;;;;;;;;;;;;28.09;28.49;101778.03;4961061;28;127850;-69
2022/03/16 12:49:07;;;;;;;;;;;;;;;28.20;28.33;101772.00;4945748;28;98065;-68
2022/03/16 12:51:45;;;;;;;;;;;;;;;27.70;28.81;101767.84;4951320;28;107216;-69
2022/03/16 12:54:22;;;;;;;;;;;;;;;27.34;29.11;101773.16;4979509;28;98143;-69